Latest Coastal Weather Observations for Portland Harbour

IDS60701

Issued at 11:21 pm CDT Tuesday 3 March 2015 (issued every 10 minutes, with the page automatically refreshed every 10 minutes)

About coastal observations | Map of coastal stations | Coastal observations for SA | Marine services | Other Formats
Station Details ID: 090192 Name: PORTLAND NTC AWS Lat: -38.34 Lon: 141.61 Height: 0.0 m
Data from the previous 72 hours. | See also: Recent months for locations in South Australia
Date/Time
CDT
Temp

°C
Wind Pressure Rain
since 9am
mm
Weather Cloud Vis
km
Sea
Height
m
Swell
Dir
 
Speed
knots
Gust
knots
hPa Trend Height
m
Period
s
Dir
03/11:00pm 15.1 NW 5 6 1017.2 - - - - - - - - -
03/10:30pm 15.1 NW 4 5 1017.5 - - - - - - - - -
03/10:00pm 15.3 WNW 4 5 1017.6 - - - - - - - - -
03/09:30pm 15.4 WNW 4 6 1017.6 - - - - - - - - -
03/09:00pm 15.8 WNW 5 7 1017.4 - - - - - - - - -
03/08:30pm 16.3 W 5 7 1017.0 - - - - - - - - -
03/08:00pm 16.9 WSW 5 7 1016.8 - - - - - - - - -
03/07:30pm 17.2 SW 9 13 1016.5 - - - - - - - - -
03/07:00pm 17.3 SW 11 15 1016.5 - - - - - - - - -
03/06:30pm 17.5 SW 10 13 1016.4 - - - - - - - - -
03/06:00pm 17.7 SW 11 16 1016.4 - - - - - - - - -
03/05:30pm 18.4 SW 13 18 1016.2 - - - - - - - - -
03/05:00pm 18.5 SW 13 18 1016.2 - - - - - - - - -
03/04:30pm 18.5 SW 11 16 1016.2 - - - - - - - - -
03/04:00pm 18.8 SW 11 17 1016.3 - - - - - - - - -
03/03:30pm 18.6 SW 12 17 1016.5 - - - - - - - - -
03/03:00pm 18.7 SSW 12 18 1016.8 - - - - - - - - -
03/02:30pm 18.6 WSW 9 15 1017.2 - - - - - - - - -
03/02:00pm 18.6 WSW 9 15 1017.2 - - - - - - - - -
03/01:30pm 18.7 SW 10 14 1017.5 - - - - - - - - -
03/01:00pm 18.5 SW 10 15 1017.8 - - - - - - - - -
03/12:30pm 18.4 S 9 13 1018.1 - - - - - - - - -
03/12:00pm 18.4 SW 7 11 1018.6 - - - - - - - - -
03/11:30am 17.7 S 8 11 1018.7 - - - - - - - - -
03/11:00am 18.1 S 7 12 1018.6 - - - - - - - - -
03/10:30am 18.0 SSW 5 8 1018.5 - - - - - - - - -
03/10:00am 17.8 SSE 3 7 1018.4 - - - - - - - - -
03/09:30am 16.9 SW 2 4 1018.3 - - - - - - - - -
03/09:00am 15.5 S 1 2 1018.1 - - - - - - - - -
03/08:30am 14.4 SW 3 4 1017.9 - - - - - - - - -
03/08:00am 13.9 WSW 4 5 1017.7 - - - - - - - - -
03/07:30am 12.4 SW 4 5 1017.5 - - - - - - - - -
03/07:00am 12.4 WSW 4 5 1017.3 - - - - - - - - -
03/06:30am 13.0 SW 3 4 1016.7 - - - - - - - - -
03/06:00am 13.3 SW 3 4 1016.5 - - - - - - - - -
03/05:30am 13.5 SW 4 5 1016.3 - - - - - - - - -
03/05:00am 13.1 WSW 4 5 1016.2 - - - - - - - - -
03/04:30am 13.3 WSW 4 5 1016.1 - - - - - - - - -
03/04:00am 12.9 WSW 4 6 1016.1 - - - - - - - - -
03/03:30am 13.4 WSW 4 5 1016.1 - - - - - - - - -
03/03:00am 13.6 W 5 7 1016.1 - - - - - - - - -
03/02:30am 13.9 W 5 6 1016.4 - - - - - - - - -
03/02:00am 14.5 WSW 3 4 1016.5 - - - - - - - - -
03/01:30am 15.0 W 3 4 1016.7 - - - - - - - - -
03/01:00am 15.4 W 2 3 1016.8 - - - - - - - - -
03/12:30am 15.6 WSW 2 4 1016.9 - - - - - - - - -
03/12:00am 16.1 S 4 5 1016.8 - - - - - - - - -
 
Date/Time
CDT
Temp

°C
Wind Pressure Rain
since 9am
mm
Weather Cloud Vis
km
Sea
Height
m
Swell
Dir
 
Speed
knots
Gust
knots
hPa Trend Height
m
Period
s
Dir
02/11:30pm 16.2 S 4 5 1016.9 - - - - - - - - -
02/11:00pm 16.4 S 6 9 1016.7 - - - - - - - - -
02/10:30pm 16.5 S 6 8 1016.8 - - - - - - - - -
02/10:00pm 16.3 S 3 6 1016.8 - - - - - - - - -
02/09:30pm 16.2 SSW 4 5 1016.7 - - - - - - - - -
02/09:00pm 16.6 S 4 4 1016.4 - - - - - - - - -
02/08:30pm 16.6 SSW 3 5 1016.0 - - - - - - - - -
02/08:00pm 16.8 SSW 4 6 1015.9 - - - - - - - - -
02/07:30pm 16.9 SSW 5 8 1015.5 - - - - - - - - -
02/07:00pm 17.1 S 6 8 1015.3 - - - - - - - - -
02/06:30pm 17.2 S 5 6 1015.2 - - - - - - - - -
02/06:00pm 17.3 SSW 8 11 1015.0 - - - - - - - - -
02/05:30pm 17.4 SSW 9 12 1014.9 - - - - - - - - -
02/05:00pm 18.2 SSW 9 12 1014.9 - - - - - - - - -
02/04:30pm 18.1 SSW 10 13 1014.5 - - - - - - - - -
02/04:00pm 18.8 SW 12 15 1014.2 - - - - - - - - -
02/03:30pm 18.4 SW 13 17 1014.3 - - - - - - - - -
02/03:00pm 19.2 WSW 12 18 1014.7 - - - - - - - - -
02/02:30pm 19.7 SW 12 19 1014.8 - - - - - - - - -
02/02:00pm 19.4 NNE 4 8 1014.8 - - - - - - - - -
02/01:30pm 17.9 ENE 5 8 1015.2 - - - - - - - - -
02/01:00pm 17.2 ESE 5 6 1015.6 - - - - - - - - -
02/12:30pm 16.6 ESE 4 6 1016.1 - - - - - - - - -
02/12:00pm 15.9 E 2 3 1016.7 - - - - - - - - -
02/11:30am 15.2 E 6 8 1016.8 - - - - - - - - -
02/11:00am 15.1 ENE 7 9 1017.1 - - - - - - - - -
02/10:30am 14.5 NE 7 9 1017.5 - - - - - - - - -
02/10:00am 14.4 NE 8 11 1017.5 - - - - - - - - -
02/09:30am 14.1 NE 11 13 1017.6 - - - - - - - - -
02/09:00am 14.2 NE 11 14 1017.6 - - - - - - - - -
02/08:30am 14.2 NE 13 15 1018.0 - - - - - - - - -
02/08:00am 14.1 NE 13 16 1017.9 - - - - - - - - -
02/07:30am 14.0 NE 14 16 1017.9 - - - - - - - - -
02/07:00am 13.9 NE 11 15 1017.5 - - - - - - - - -
02/06:30am 13.3 NNE 9 11 1017.6 - - - - - - - - -
02/06:00am 13.4 NNE 9 11 1017.5 - - - - - - - - -
02/05:30am 13.1 NNE 8 10 1017.3 - - - - - - - - -
02/05:00am 13.6 NNE 9 11 1017.1 - - - - - - - - -
02/04:30am 13.6 NE 9 10 1017.1 - - - - - - - - -
02/04:00am 14.8 E 9 12 1017.3 - - - - - - - - -
02/03:30am 14.9 E 7 12 1017.7 - - - - - - - - -
02/03:00am 14.9 E 8 12 1017.7 - - - - - - - - -
02/02:30am 15.1 ESE 8 11 1017.9 - - - - - - - - -
02/02:00am 15.0 ESE 8 10 1018.4 - - - - - - - - -
02/01:30am 15.3 E 7 10 1018.9 - - - - - - - - -
02/01:00am 15.4 SE 6 8 1018.9 - - - - - - - - -
02/12:30am 15.1 ESE 6 8 1019.1 - - - - - - - - -
02/12:00am 15.3 SE 6 9 1019.3 - - - - - - - - -
 
Date/Time
CDT
Temp

°C
Wind Pressure Rain
since 9am
mm
Weather Cloud Vis
km
Sea
Height
m
Swell
Dir
 
Speed
knots
Gust
knots
hPa Trend Height
m
Period
s
Dir
01/11:30pm 15.2 SE 5 8 1019.3 - - - - - - - - -
01/11:00pm 15.3 SE 5 8 1019.6 - - - - - - - - -
01/10:30pm 15.2 SSE 6 8 1019.8 - - - - - - - - -
01/10:00pm 15.3 SSE 9 13 1019.7 - - - - - - - - -
01/09:30pm 15.4 SSE 8 11 1019.7 - - - - - - - - -
01/09:00pm 15.6 SE 9 13 1019.3 - - - - - - - - -
01/08:30pm 15.5 SE 9 13 1018.8 - - - - - - - - -
01/08:00pm 15.8 SSE 9 12 1018.7 - - - - - - - - -
01/07:30pm 15.8 SSE 9 13 1018.5 - - - - - - - - -
01/07:00pm 16.1 SE 11 14 1018.4 - - - - - - - - -
01/06:30pm 16.3 SE 10 13 1018.1 - - - - - - - - -
01/06:00pm 16.4 SE 10 12 1018.0 - - - - - - - - -
01/05:30pm 16.5 SSE 11 16 1017.6 - - - - - - - - -
01/05:00pm 16.8 SSE 11 16 1017.5 - - - - - - - - -
01/04:30pm 16.5 SSE 13 18 1017.8 - - - - - - - - -
01/04:00pm 17.1 S 13 21 1017.6 - - - - - - - - -
01/03:30pm 17.1 S 14 23 1017.3 - - - - - - - - -
01/03:00pm 17.4 S 14 20 1017.4 - - - - - - - - -
01/02:30pm 16.9 S 14 20 1017.8 - - - - - - - - -
01/02:00pm 17.1 S 15 20 1017.4 - - - - - - - - -
01/01:30pm 17.1 S 12 17 1017.2 - - - - - - - - -
01/01:00pm 16.8 S 14 19 1017.0 - - - - - - - - -
01/12:30pm 16.9 S 14 19 1016.9 - - - - - - - - -
01/12:00pm 16.0 S 10 14 1017.0 - - - - - - - - -
01/11:30am 16.5 S 17 22 1016.7 - - - - - - - - -
01/11:00am 17.2 S 13 19 1016.1 - - - - - - - - -
01/10:30am 16.9 S 14 19 1015.5 - - - - - - - - -
01/10:00am 16.4 S 14 19 1015.1 - - - - - - - - -
01/09:30am 17.2 SSW 10 13 1014.7 - - - - - - - - -
01/09:00am 16.7 S 11 15 1014.0 - - - - - - - - -
01/08:30am 16.8 S 10 16 1013.3 - - - - - - - - -
01/08:00am 15.3 WSW 6 9 1012.9 - - - - - - - - -
01/07:30am 15.2 SSW 9 12 1012.3 - - - - - - - - -
01/07:00am 14.9 SSW 12 23 1011.7 - - - - - - - - -
01/06:56am 15.3 SSW 8 23 1011.6 - - - - - - - - -
01/06:30am 15.6 SW 4 7 1011.0 - - - - - - - - -
01/06:00am 15.1 SW 3 4 1010.4 - - - - - - - - -
01/05:30am 15.1 WNW 3 5 1010.0 - - - - - - - - -
01/05:00am 15.3 SW 2 5 1009.5 - - - - - - - - -
01/04:30am 15.5 SW 1 2 1009.2 - - - - - - - - -
01/04:00am 15.3 SW 3 4 1009.0 - - - - - - - - -
01/03:30am 15.4 WSW 3 6 1008.8 - - - - - - - - -
01/03:00am 15.4 W 5 8 1008.6 - - - - - - - - -
01/02:30am 15.3 WNW 5 7 1008.5 - - - - - - - - -
01/02:00am 15.1 W 3 4 1008.5 - - - - - - - - -
01/01:30am 15.0 WNW 2 3 1008.5 - - - - - - - - -
01/01:00am 15.2 W 3 5 1008.6 - - - - - - - - -
01/12:30am 15.7 WSW 3 4 1008.3 - - - - - - - - -
01/12:00am 16.4 SW 4 9 1008.0 - - - - - - - - -
 
Date/Time
CDT
Temp

°C
Wind Pressure Rain
since 9am
mm
Weather Cloud Vis
km
Sea
Height
m
Swell
Dir
 
Speed
knots
Gust
knots
hPa Trend Height
m
Period
s
Dir
28/11:30pm 16.6 SW 8 10 1008.1 - - - - - - - - -
28/11:00pm 16.9 SW 9 14 1008.2 - - - - - - - - -

Other Formats:

Comma delimited format used in spreadsheet applications
http://www.bom.gov.au/fwo/IDS60701/IDS60701.95826.axf

JavaScript Object Notation format (JSON) in row-major order
http://www.bom.gov.au/fwo/IDS60701/IDS60701.95826.json